sensor_id;sensor_type;location;lat;lon;timestamp;P1;durP1;ratioP1;P2;durP2;ratioP2
29384;SDS011;16367;48.736;9.218;2022-07-06T00:01:17;5.60;;;4.67;;
29384;SDS011;16367;48.736;9.218;2022-07-06T00:03:21;4.80;;;4.40;;
29384;SDS011;16367;48.736;9.218;2022-07-06T00:05:24;4.60;;;4.13;;
29384;SDS011;16367;48.736;9.218;2022-07-06T00:07:27;4.27;;;3.97;;
29384;SDS011;16367;48.736;9.218;2022-07-06T00:09:31;5.23;;;4.60;;
29384;SDS011;16367;48.736;9.218;2022-07-06T00:11:34;4.77;;;4.37;;
29384;SDS011;16367;48.736;9.218;2022-07-06T00:13:38;4.57;;;4.17;;
29384;SDS011;16367;48.736;9.218;2022-07-06T00:15:41;5.50;;;4.53;;
29384;SDS011;16367;48.736;9.218;2022-07-06T00:17:44;4.30;;;4.00;;
29384;SDS011;16367;48.736;9.218;2022-07-06T00:19:48;4.47;;;4.07;;
29384;SDS011;16367;48.736;9.218;2022-07-06T00:21:51;5.17;;;4.67;;
29384;SDS011;16367;48.736;9.218;2022-07-06T00:23:54;6.47;;;4.83;;
29384;SDS011;16367;48.736;9.218;2022-07-06T00:25:56;7.37;;;4.63;;
29384;SDS011;16367;48.736;9.218;2022-07-06T00:27:59;4.73;;;4.30;;
29384;SDS011;16367;48.736;9.218;2022-07-06T00:30:02;4.27;;;3.90;;
29384;SDS011;16367;48.736;9.218;2022-07-06T00:32:05;4.70;;;4.20;;
29384;SDS011;16367;48.736;9.218;2022-07-06T00:34:09;7.90;;;5.53;;
29384;SDS011;16367;48.736;9.218;2022-07-06T00:36:13;4.37;;;4.00;;
29384;SDS011;16367;48.736;9.218;2022-07-06T00:38:16;4.70;;;4.30;;
29384;SDS011;16367;48.736;9.218;2022-07-06T00:40:19;4.43;;;4.07;;
29384;SDS011;16367;48.736;9.218;2022-07-06T00:42:22;5.10;;;4.60;;
29384;SDS011;16367;48.736;9.218;2022-07-06T00:44:25;6.23;;;4.60;;
29384;SDS011;16367;48.736;9.218;2022-07-06T00:46:30;4.60;;;4.30;;
29384;SDS011;16367;48.736;9.218;2022-07-06T00:48:34;4.97;;;4.57;;
29384;SDS011;16367;48.736;9.218;2022-07-06T00:50:37;5.53;;;4.40;;
29384;SDS011;16367;48.736;9.218;2022-07-06T00:52:41;4.70;;;4.30;;
29384;SDS011;16367;48.736;9.218;2022-07-06T00:54:46;4.30;;;4.00;;
29384;SDS011;16367;48.736;9.218;2022-07-06T00:56:49;5.20;;;4.80;;
29384;SDS011;16367;48.736;9.218;2022-07-06T00:58:52;6.40;;;5.00;;
29384;SDS011;16367;48.736;9.218;2022-07-06T01:00:55;5.33;;;4.37;;
29384;SDS011;16367;48.736;9.218;2022-07-06T01:02:58;7.00;;;4.60;;
29384;SDS011;16367;48.736;9.218;2022-07-06T01:05:01;4.97;;;4.57;;
29384;SDS011;16367;48.736;9.218;2022-07-06T01:07:05;5.03;;;4.53;;
29384;SDS011;16367;48.736;9.218;2022-07-06T01:09:09;4.77;;;4.37;;
29384;SDS011;16367;48.736;9.218;2022-07-06T01:11:12;5.13;;;4.53;;
29384;SDS011;16367;48.736;9.218;2022-07-06T01:13:15;5.40;;;4.90;;
29384;SDS011;16367;48.736;9.218;2022-07-06T01:15:19;5.13;;;4.73;;
29384;SDS011;16367;48.736;9.218;2022-07-06T01:17:23;5.00;;;4.60;;
29384;SDS011;16367;48.736;9.218;2022-07-06T01:19:26;4.40;;;4.00;;
29384;SDS011;16367;48.736;9.218;2022-07-06T01:21:30;4.80;;;4.50;;
29384;SDS011;16367;48.736;9.218;2022-07-06T01:23:35;6.30;;;4.60;;
29384;SDS011;16367;48.736;9.218;2022-07-06T01:25:41;4.75;;;4.22;;
29384;SDS011;16367;48.736;9.218;2022-07-06T01:27:44;4.93;;;4.53;;
29384;SDS011;16367;48.736;9.218;2022-07-06T01:29:47;5.07;;;4.60;;
29384;SDS011;16367;48.736;9.218;2022-07-06T01:31:50;5.10;;;4.27;;
29384;SDS011;16367;48.736;9.218;2022-07-06T01:33:54;5.27;;;4.77;;
29384;SDS011;16367;48.736;9.218;2022-07-06T01:35:57;4.93;;;4.53;;
29384;SDS011;16367;48.736;9.218;2022-07-06T01:38:01;5.10;;;4.20;;
29384;SDS011;16367;48.736;9.218;2022-07-06T01:40:05;4.40;;;4.10;;
29384;SDS011;16367;48.736;9.218;2022-07-06T01:42:09;4.50;;;4.10;;
29384;SDS011;16367;48.736;9.218;2022-07-06T01:44:12;7.60;;;4.40;;
29384;SDS011;16367;48.736;9.218;2022-07-06T01:46:15;4.80;;;4.37;;
29384;SDS011;16367;48.736;9.218;2022-07-06T01:48:18;4.00;;;3.70;;
29384;SDS011;16367;48.736;9.218;2022-07-06T01:50:22;4.57;;;4.20;;
29384;SDS011;16367;48.736;9.218;2022-07-06T01:52:24;4.95;;;4.53;;
29384;SDS011;16367;48.736;9.218;2022-07-06T01:54:29;4.23;;;3.93;;
29384;SDS011;16367;48.736;9.218;2022-07-06T01:56:32;4.60;;;4.20;;
29384;SDS011;16367;48.736;9.218;2022-07-06T01:58:34;6.20;;;4.22;;
29384;SDS011;16367;48.736;9.218;2022-07-06T02:00:37;4.67;;;4.27;;
29384;SDS011;16367;48.736;9.218;2022-07-06T02:02:40;5.45;;;4.38;;
29384;SDS011;16367;48.736;9.218;2022-07-06T02:04:43;4.53;;;3.97;;
29384;SDS011;16367;48.736;9.218;2022-07-06T02:06:45;4.70;;;3.70;;
29384;SDS011;16367;48.736;9.218;2022-07-06T02:08:48;6.75;;;4.85;;
29384;SDS011;16367;48.736;9.218;2022-07-06T02:10:54;6.50;;;4.07;;
29384;SDS011;16367;48.736;9.218;2022-07-06T02:12:57;4.50;;;4.10;;
29384;SDS011;16367;48.736;9.218;2022-07-06T02:15:00;4.93;;;4.00;;
29384;SDS011;16367;48.736;9.218;2022-07-06T02:17:02;4.70;;;4.30;;
29384;SDS011;16367;48.736;9.218;2022-07-06T02:19:06;6.70;;;4.22;;
29384;SDS011;16367;48.736;9.218;2022-07-06T02:21:09;4.43;;;4.07;;
29384;SDS011;16367;48.736;9.218;2022-07-06T02:23:12;5.07;;;4.32;;
29384;SDS011;16367;48.736;9.218;2022-07-06T02:25:15;4.88;;;4.47;;
29384;SDS011;16367;48.736;9.218;2022-07-06T02:27:19;4.70;;;4.30;;
29384;SDS011;16367;48.736;9.218;2022-07-06T02:29:22;4.93;;;4.53;;
29384;SDS011;16367;48.736;9.218;2022-07-06T02:31:24;4.90;;;4.40;;
29384;SDS011;16367;48.736;9.218;2022-07-06T02:33:27;4.57;;;4.18;;
29384;SDS011;16367;48.736;9.218;2022-07-06T02:35:30;4.53;;;4.22;;
29384;SDS011;16367;48.736;9.218;2022-07-06T02:37:33;4.03;;;3.72;;
29384;SDS011;16367;48.736;9.218;2022-07-06T02:39:35;4.72;;;4.30;;
29384;SDS011;16367;48.736;9.218;2022-07-06T02:41:38;4.70;;;4.20;;
29384;SDS011;16367;48.736;9.218;2022-07-06T02:43:42;4.75;;;4.35;;
29384;SDS011;16367;48.736;9.218;2022-07-06T02:45:45;4.63;;;4.03;;
29384;SDS011;16367;48.736;9.218;2022-07-06T02:47:48;5.65;;;4.40;;
29384;SDS011;16367;48.736;9.218;2022-07-06T02:49:52;5.93;;;4.75;;
29384;SDS011;16367;48.736;9.218;2022-07-06T02:51:55;4.90;;;4.50;;
29384;SDS011;16367;48.736;9.218;2022-07-06T02:53:58;4.40;;;4.00;;
29384;SDS011;16367;48.736;9.218;2022-07-06T02:56:01;8.27;;;4.85;;
29384;SDS011;16367;48.736;9.218;2022-07-06T02:58:04;4.45;;;4.10;;
29384;SDS011;16367;48.736;9.218;2022-07-06T03:00:08;4.90;;;4.50;;
29384;SDS011;16367;48.736;9.218;2022-07-06T03:02:12;5.05;;;4.55;;
29384;SDS011;16367;48.736;9.218;2022-07-06T03:04:15;4.82;;;4.32;;
29384;SDS011;16367;48.736;9.218;2022-07-06T03:06:18;5.18;;;4.40;;
29384;SDS011;16367;48.736;9.218;2022-07-06T03:08:23;5.18;;;4.68;;
29384;SDS011;16367;48.736;9.218;2022-07-06T03:10:27;5.10;;;4.60;;
29384;SDS011;16367;48.736;9.218;2022-07-06T03:12:29;4.80;;;4.30;;
29384;SDS011;16367;48.736;9.218;2022-07-06T03:14:32;8.77;;;4.40;;
29384;SDS011;16367;48.736;9.218;2022-07-06T03:16:36;5.63;;;5.00;;
29384;SDS011;16367;48.736;9.218;2022-07-06T03:18:39;7.00;;;4.25;;
29384;SDS011;16367;48.736;9.218;2022-07-06T03:20:42;5.68;;;4.80;;
29384;SDS011;16367;48.736;9.218;2022-07-06T03:22:45;4.90;;;4.45;;
29384;SDS011;16367;48.736;9.218;2022-07-06T03:24:47;6.30;;;4.43;;
29384;SDS011;16367;48.736;9.218;2022-07-06T03:26:50;4.82;;;4.43;;
29384;SDS011;16367;48.736;9.218;2022-07-06T03:28:53;5.18;;;4.68;;
29384;SDS011;16367;48.736;9.218;2022-07-06T03:30:56;5.10;;;4.60;;
29384;SDS011;16367;48.736;9.218;2022-07-06T03:33:01;5.75;;;4.80;;
29384;SDS011;16367;48.736;9.218;2022-07-06T03:35:04;5.20;;;4.35;;
29384;SDS011;16367;48.736;9.218;2022-07-06T03:37:08;4.95;;;4.50;;
29384;SDS011;16367;48.736;9.218;2022-07-06T03:39:10;5.35;;;4.53;;
29384;SDS011;16367;48.736;9.218;2022-07-06T03:41:13;4.85;;;4.32;;
29384;SDS011;16367;48.736;9.218;2022-07-06T03:43:16;5.45;;;4.18;;
29384;SDS011;16367;48.736;9.218;2022-07-06T03:45:19;5.30;;;4.90;;
29384;SDS011;16367;48.736;9.218;2022-07-06T03:47:22;5.00;;;4.60;;
29384;SDS011;16367;48.736;9.218;2022-07-06T03:49:26;5.97;;;4.80;;
29384;SDS011;16367;48.736;9.218;2022-07-06T03:51:29;5.90;;;4.50;;
29384;SDS011;16367;48.736;9.218;2022-07-06T03:53:31;5.38;;;4.57;;
29384;SDS011;16367;48.736;9.218;2022-07-06T03:55:34;5.22;;;4.47;;
29384;SDS011;16367;48.736;9.218;2022-07-06T03:57:37;5.15;;;4.13;;
29384;SDS011;16367;48.736;9.218;2022-07-06T03:59:41;9.18;;;5.00;;
29384;SDS011;16367;48.736;9.218;2022-07-06T04:01:44;5.55;;;5.05;;
29384;SDS011;16367;48.736;9.218;2022-07-06T04:03:47;5.15;;;4.65;;
29384;SDS011;16367;48.736;9.218;2022-07-06T04:05:51;4.93;;;4.53;;
29384;SDS011;16367;48.736;9.218;2022-07-06T04:07:54;5.30;;;4.65;;
29384;SDS011;16367;48.736;9.218;2022-07-06T04:09:57;5.80;;;4.60;;
29384;SDS011;16367;48.736;9.218;2022-07-06T04:12:00;5.53;;;5.03;;
29384;SDS011;16367;48.736;9.218;2022-07-06T04:14:02;6.13;;;5.20;;
29384;SDS011;16367;48.736;9.218;2022-07-06T04:16:05;5.53;;;4.68;;
29384;SDS011;16367;48.736;9.218;2022-07-06T04:18:08;6.55;;;5.50;;
29384;SDS011;16367;48.736;9.218;2022-07-06T04:20:11;7.38;;;4.70;;
29384;SDS011;16367;48.736;9.218;2022-07-06T04:22:15;5.57;;;4.82;;
29384;SDS011;16367;48.736;9.218;2022-07-06T04:24:18;6.57;;;5.00;;
29384;SDS011;16367;48.736;9.218;2022-07-06T04:26:21;5.43;;;5.03;;
29384;SDS011;16367;48.736;9.218;2022-07-06T04:28:23;5.20;;;4.80;;
29384;SDS011;16367;48.736;9.218;2022-07-06T04:30:27;5.40;;;4.90;;
29384;SDS011;16367;48.736;9.218;2022-07-06T04:32:29;5.67;;;4.93;;
29384;SDS011;16367;48.736;9.218;2022-07-06T04:34:33;6.90;;;4.33;;
29384;SDS011;16367;48.736;9.218;2022-07-06T04:36:35;5.03;;;4.63;;
29384;SDS011;16367;48.736;9.218;2022-07-06T04:38:39;6.20;;;4.90;;
29384;SDS011;16367;48.736;9.218;2022-07-06T04:40:42;5.23;;;4.40;;
29384;SDS011;16367;48.736;9.218;2022-07-06T04:42:47;5.33;;;4.77;;
29384;SDS011;16367;48.736;9.218;2022-07-06T04:44:50;5.47;;;4.90;;
29384;SDS011;16367;48.736;9.218;2022-07-06T04:46:53;6.60;;;4.80;;
29384;SDS011;16367;48.736;9.218;2022-07-06T04:48:56;5.57;;;4.30;;
29384;SDS011;16367;48.736;9.218;2022-07-06T04:50:59;5.30;;;4.80;;
29384;SDS011;16367;48.736;9.218;2022-07-06T04:53:02;5.67;;;4.60;;
29384;SDS011;16367;48.736;9.218;2022-07-06T04:55:06;5.70;;;5.20;;
29384;SDS011;16367;48.736;9.218;2022-07-06T04:57:10;5.53;;;5.03;;
29384;SDS011;16367;48.736;9.218;2022-07-06T04:59:13;6.53;;;4.90;;
29384;SDS011;16367;48.736;9.218;2022-07-06T05:01:16;6.20;;;5.10;;
29384;SDS011;16367;48.736;9.218;2022-07-06T05:03:19;5.70;;;5.10;;
29384;SDS011;16367;48.736;9.218;2022-07-06T05:05:22;5.40;;;5.00;;
29384;SDS011;16367;48.736;9.218;2022-07-06T05:07:25;5.73;;;5.23;;
29384;SDS011;16367;48.736;9.218;2022-07-06T05:09:30;7.03;;;5.80;;
29384;SDS011;16367;48.736;9.218;2022-07-06T05:11:34;5.60;;;5.10;;
29384;SDS011;16367;48.736;9.218;2022-07-06T05:13:38;5.73;;;5.33;;
29384;SDS011;16367;48.736;9.218;2022-07-06T05:15:41;5.97;;;5.30;;
29384;SDS011;16367;48.736;9.218;2022-07-06T05:17:44;6.50;;;5.13;;
29384;SDS011;16367;48.736;9.218;2022-07-06T05:19:47;5.63;;;5.00;;
29384;SDS011;16367;48.736;9.218;2022-07-06T05:21:50;5.97;;;5.47;;
29384;SDS011;16367;48.736;9.218;2022-07-06T05:23:53;6.03;;;5.53;;
29384;SDS011;16367;48.736;9.218;2022-07-06T05:25:55;6.40;;;5.87;;
29384;SDS011;16367;48.736;9.218;2022-07-06T05:27:59;13.00;;;4.90;;
29384;SDS011;16367;48.736;9.218;2022-07-06T05:30:02;5.50;;;5.10;;
29384;SDS011;16367;48.736;9.218;2022-07-06T05:32:06;6.10;;;5.43;;
29384;SDS011;16367;48.736;9.218;2022-07-06T05:34:09;5.70;;;5.20;;
29384;SDS011;16367;48.736;9.218;2022-07-06T05:36:12;5.37;;;4.97;;
29384;SDS011;16367;48.736;9.218;2022-07-06T05:38:15;5.87;;;5.27;;
29384;SDS011;16367;48.736;9.218;2022-07-06T05:40:18;6.50;;;5.90;;
29384;SDS011;16367;48.736;9.218;2022-07-06T05:42:21;6.60;;;5.30;;
29384;SDS011;16367;48.736;9.218;2022-07-06T05:44:25;5.40;;;4.90;;
29384;SDS011;16367;48.736;9.218;2022-07-06T05:46:28;5.67;;;5.20;;
29384;SDS011;16367;48.736;9.218;2022-07-06T05:48:31;6.27;;;5.60;;
29384;SDS011;16367;48.736;9.218;2022-07-06T05:50:51;6.50;;;5.80;;
29384;SDS011;16367;48.736;9.218;2022-07-06T05:52:57;6.37;;;5.33;;
29384;SDS011;16367;48.736;9.218;2022-07-06T05:55:13;6.10;;;5.60;;
29384;SDS011;16367;48.736;9.218;2022-07-06T05:57:15;5.77;;;5.37;;
29384;SDS011;16367;48.736;9.218;2022-07-06T05:59:19;8.20;;;5.77;;
29384;SDS011;16367;48.736;9.218;2022-07-06T06:01:23;6.70;;;6.03;;
29384;SDS011;16367;48.736;9.218;2022-07-06T06:03:26;6.63;;;5.50;;
29384;SDS011;16367;48.736;9.218;2022-07-06T06:05:28;7.00;;;5.57;;
29384;SDS011;16367;48.736;9.218;2022-07-06T06:07:32;6.37;;;5.40;;
29384;SDS011;16367;48.736;9.218;2022-07-06T06:09:35;5.60;;;5.10;;
29384;SDS011;16367;48.736;9.218;2022-07-06T06:11:38;6.03;;;5.47;;
29384;SDS011;16367;48.736;9.218;2022-07-06T06:13:41;6.90;;;5.30;;
29384;SDS011;16367;48.736;9.218;2022-07-06T06:15:44;6.37;;;5.87;;
29384;SDS011;16367;48.736;9.218;2022-07-06T06:17:48;5.93;;;5.43;;
29384;SDS011;16367;48.736;9.218;2022-07-06T06:19:51;5.40;;;4.90;;
29384;SDS011;16367;48.736;9.218;2022-07-06T06:21:54;5.37;;;4.97;;
29384;SDS011;16367;48.736;9.218;2022-07-06T06:23:57;6.43;;;5.40;;
29384;SDS011;16367;48.736;9.218;2022-07-06T06:26:00;5.47;;;4.97;;
29384;SDS011;16367;48.736;9.218;2022-07-06T06:28:03;4.97;;;4.57;;
29384;SDS011;16367;48.736;9.218;2022-07-06T06:30:07;5.90;;;5.30;;
29384;SDS011;16367;48.736;9.218;2022-07-06T06:32:10;7.20;;;5.50;;
29384;SDS011;16367;48.736;9.218;2022-07-06T06:34:15;6.13;;;5.60;;
29384;SDS011;16367;48.736;9.218;2022-07-06T06:36:18;6.00;;;5.30;;
29384;SDS011;16367;48.736;9.218;2022-07-06T06:38:22;7.07;;;5.40;;
29384;SDS011;16367;48.736;9.218;2022-07-06T06:40:28;6.07;;;4.93;;
29384;SDS011;16367;48.736;9.218;2022-07-06T06:42:31;6.20;;;5.60;;
29384;SDS011;16367;48.736;9.218;2022-07-06T06:44:34;6.07;;;5.20;;
29384;SDS011;16367;48.736;9.218;2022-07-06T06:46:37;5.50;;;5.10;;
29384;SDS011;16367;48.736;9.218;2022-07-06T06:48:41;5.63;;;5.13;;
29384;SDS011;16367;48.736;9.218;2022-07-06T06:50:45;5.97;;;5.47;;
29384;SDS011;16367;48.736;9.218;2022-07-06T06:52:48;9.23;;;4.73;;
29384;SDS011;16367;48.736;9.218;2022-07-06T06:54:51;5.23;;;4.80;;
29384;SDS011;16367;48.736;9.218;2022-07-06T06:56:54;5.37;;;4.97;;
29384;SDS011;16367;48.736;9.218;2022-07-06T06:58:56;6.33;;;5.20;;
29384;SDS011;16367;48.736;9.218;2022-07-06T07:01:18;5.93;;;5.27;;
29384;SDS011;16367;48.736;9.218;2022-07-06T07:03:20;5.50;;;5.00;;
29384;SDS011;16367;48.736;9.218;2022-07-06T07:05:23;11.50;;;5.43;;
29384;SDS011;16367;48.736;9.218;2022-07-06T07:07:28;5.60;;;5.20;;
29384;SDS011;16367;48.736;9.218;2022-07-06T07:09:30;6.10;;;5.63;;
29384;SDS011;16367;48.736;9.218;2022-07-06T07:11:33;5.53;;;5.03;;
29384;SDS011;16367;48.736;9.218;2022-07-06T07:13:36;5.70;;;5.30;;
29384;SDS011;16367;48.736;9.218;2022-07-06T07:15:39;5.60;;;5.10;;
29384;SDS011;16367;48.736;9.218;2022-07-06T07:17:42;6.23;;;5.60;;
29384;SDS011;16367;48.736;9.218;2022-07-06T07:19:45;7.30;;;4.90;;
29384;SDS011;16367;48.736;9.218;2022-07-06T07:21:47;6.50;;;6.00;;
29384;SDS011;16367;48.736;9.218;2022-07-06T07:23:52;6.40;;;5.90;;
29384;SDS011;16367;48.736;9.218;2022-07-06T07:25:54;5.83;;;5.20;;
29384;SDS011;16367;48.736;9.218;2022-07-06T07:27:57;6.97;;;5.27;;
29384;SDS011;16367;48.736;9.218;2022-07-06T07:30:00;7.07;;;5.73;;
29384;SDS011;16367;48.736;9.218;2022-07-06T07:32:03;6.53;;;5.03;;
29384;SDS011;16367;48.736;9.218;2022-07-06T07:34:06;5.77;;;5.27;;
29384;SDS011;16367;48.736;9.218;2022-07-06T07:36:09;5.47;;;4.87;;
29384;SDS011;16367;48.736;9.218;2022-07-06T07:38:12;10.70;;;5.70;;
29384;SDS011;16367;48.736;9.218;2022-07-06T07:40:17;6.33;;;5.10;;
29384;SDS011;16367;48.736;9.218;2022-07-06T07:42:19;5.43;;;4.83;;
29384;SDS011;16367;48.736;9.218;2022-07-06T07:44:22;6.27;;;5.67;;
29384;SDS011;16367;48.736;9.218;2022-07-06T07:46:26;5.63;;;5.07;;
29384;SDS011;16367;48.736;9.218;2022-07-06T07:48:29;5.50;;;5.00;;
29384;SDS011;16367;48.736;9.218;2022-07-06T07:50:31;6.73;;;5.13;;
29384;SDS011;16367;48.736;9.218;2022-07-06T07:52:36;7.63;;;5.20;;
29384;SDS011;16367;48.736;9.218;2022-07-06T07:54:38;6.67;;;5.43;;
29384;SDS011;16367;48.736;9.218;2022-07-06T07:56:50;5.17;;;4.77;;
29384;SDS011;16367;48.736;9.218;2022-07-06T07:58:53;5.63;;;5.23;;
29384;SDS011;16367;48.736;9.218;2022-07-06T08:00:56;7.17;;;5.73;;
29384;SDS011;16367;48.736;9.218;2022-07-06T08:02:58;10.87;;;5.17;;
29384;SDS011;16367;48.736;9.218;2022-07-06T08:05:01;5.83;;;5.33;;
29384;SDS011;16367;48.736;9.218;2022-07-06T08:07:05;5.53;;;5.13;;
29384;SDS011;16367;48.736;9.218;2022-07-06T08:09:08;6.67;;;5.40;;
29384;SDS011;16367;48.736;9.218;2022-07-06T08:11:11;6.93;;;5.40;;
29384;SDS011;16367;48.736;9.218;2022-07-06T08:13:21;5.60;;;5.00;;
29384;SDS011;16367;48.736;9.218;2022-07-06T08:15:24;4.70;;;4.40;;
29384;SDS011;16367;48.736;9.218;2022-07-06T08:17:27;6.50;;;5.00;;
29384;SDS011;16367;48.736;9.218;2022-07-06T08:19:30;6.00;;;4.80;;
29384;SDS011;16367;48.736;9.218;2022-07-06T08:21:32;5.53;;;5.13;;
29384;SDS011;16367;48.736;9.218;2022-07-06T08:23:35;5.63;;;5.00;;
29384;SDS011;16367;48.736;9.218;2022-07-06T08:25:38;5.60;;;4.90;;
29384;SDS011;16367;48.736;9.218;2022-07-06T08:27:41;7.00;;;5.30;;
29384;SDS011;16367;48.736;9.218;2022-07-06T08:29:45;5.43;;;4.93;;
29384;SDS011;16367;48.736;9.218;2022-07-06T08:31:48;6.10;;;5.43;;
29384;SDS011;16367;48.736;9.218;2022-07-06T08:33:57;5.33;;;4.93;;
29384;SDS011;16367;48.736;9.218;2022-07-06T08:36:00;5.60;;;5.10;;
29384;SDS011;16367;48.736;9.218;2022-07-06T08:38:03;6.13;;;5.63;;
29384;SDS011;16367;48.736;9.218;2022-07-06T08:40:06;5.30;;;4.90;;
29384;SDS011;16367;48.736;9.218;2022-07-06T08:42:11;6.20;;;5.53;;
29384;SDS011;16367;48.736;9.218;2022-07-06T08:44:17;6.53;;;5.97;;
29384;SDS011;16367;48.736;9.218;2022-07-06T08:46:21;5.73;;;5.13;;
29384;SDS011;16367;48.736;9.218;2022-07-06T08:48:24;6.33;;;5.80;;
29384;SDS011;16367;48.736;9.218;2022-07-06T08:50:29;5.53;;;5.10;;
29384;SDS011;16367;48.736;9.218;2022-07-06T08:52:32;8.73;;;5.60;;
29384;SDS011;16367;48.736;9.218;2022-07-06T08:54:37;5.83;;;5.30;;
29384;SDS011;16367;48.736;9.218;2022-07-06T08:56:42;6.10;;;5.60;;
29384;SDS011;16367;48.736;9.218;2022-07-06T08:58:49;5.37;;;4.87;;
29384;SDS011;16367;48.736;9.218;2022-07-06T09:00:52;5.53;;;5.03;;
29384;SDS011;16367;48.736;9.218;2022-07-06T09:02:56;5.23;;;4.73;;
29384;SDS011;16367;48.736;9.218;2022-07-06T09:05:00;6.13;;;5.63;;
29384;SDS011;16367;48.736;9.218;2022-07-06T09:07:05;6.10;;;5.50;;
29384;SDS011;16367;48.736;9.218;2022-07-06T09:09:08;8.80;;;5.40;;
29384;SDS011;16367;48.736;9.218;2022-07-06T09:11:12;5.00;;;4.57;;
29384;SDS011;16367;48.736;9.218;2022-07-06T09:13:15;6.70;;;5.40;;
29384;SDS011;16367;48.736;9.218;2022-07-06T09:15:18;5.90;;;5.47;;
29384;SDS011;16367;48.736;9.218;2022-07-06T09:17:21;9.20;;;4.97;;
29384;SDS011;16367;48.736;9.218;2022-07-06T09:19:29;4.97;;;4.60;;
29384;SDS011;16367;48.736;9.218;2022-07-06T09:21:33;4.93;;;4.30;;
29384;SDS011;16367;48.736;9.218;2022-07-06T09:23:38;5.73;;;5.23;;
29384;SDS011;16367;48.736;9.218;2022-07-06T09:25:41;7.90;;;5.33;;
29384;SDS011;16367;48.736;9.218;2022-07-06T09:27:44;5.00;;;4.50;;
29384;SDS011;16367;48.736;9.218;2022-07-06T09:29:51;5.57;;;5.07;;
29384;SDS011;16367;48.736;9.218;2022-07-06T09:31:57;7.73;;;4.60;;
29384;SDS011;16367;48.736;9.218;2022-07-06T09:34:01;5.90;;;5.40;;
29384;SDS011;16367;48.736;9.218;2022-07-06T09:36:08;5.30;;;4.80;;
29384;SDS011;16367;48.736;9.218;2022-07-06T09:38:11;6.40;;;5.80;;
29384;SDS011;16367;48.736;9.218;2022-07-06T09:40:16;5.90;;;5.50;;
29384;SDS011;16367;48.736;9.218;2022-07-06T09:42:23;5.73;;;5.23;;
29384;SDS011;16367;48.736;9.218;2022-07-06T09:44:28;5.50;;;5.10;;
29384;SDS011;16367;48.736;9.218;2022-07-06T09:46:37;9.00;;;5.57;;
29384;SDS011;16367;48.736;9.218;2022-07-06T09:48:40;6.13;;;4.90;;
29384;SDS011;16367;48.736;9.218;2022-07-06T09:50:44;5.80;;;5.27;;
29384;SDS011;16367;48.736;9.218;2022-07-06T09:52:54;5.87;;;5.37;;
29384;SDS011;16367;48.736;9.218;2022-07-06T09:54:59;7.13;;;5.53;;
29384;SDS011;16367;48.736;9.218;2022-07-06T09:57:02;5.80;;;5.20;;
29384;SDS011;16367;48.736;9.218;2022-07-06T09:59:10;6.67;;;6.00;;
29384;SDS011;16367;48.736;9.218;2022-07-06T10:01:14;5.60;;;5.10;;
29384;SDS011;16367;48.736;9.218;2022-07-06T10:03:28;4.97;;;4.57;;
29384;SDS011;16367;48.736;9.218;2022-07-06T10:05:32;5.30;;;4.80;;
29384;SDS011;16367;48.736;9.218;2022-07-06T10:07:37;6.10;;;4.47;;
29384;SDS011;16367;48.736;9.218;2022-07-06T10:09:42;5.23;;;4.30;;
29384;SDS011;16367;48.736;9.218;2022-07-06T10:11:47;4.97;;;4.17;;
29384;SDS011;16367;48.736;9.218;2022-07-06T10:13:52;4.43;;;4.07;;
29384;SDS011;16367;48.736;9.218;2022-07-06T10:15:57;4.90;;;4.50;;
29384;SDS011;16367;48.736;9.218;2022-07-06T10:18:02;5.07;;;4.33;;
29384;SDS011;16367;48.736;9.218;2022-07-06T10:20:06;5.63;;;5.23;;
29384;SDS011;16367;48.736;9.218;2022-07-06T10:22:10;5.57;;;5.07;;
29384;SDS011;16367;48.736;9.218;2022-07-06T10:24:14;8.73;;;5.53;;
29384;SDS011;16367;48.736;9.218;2022-07-06T10:26:18;6.23;;;5.50;;
29384;SDS011;16367;48.736;9.218;2022-07-06T10:28:21;9.37;;;5.90;;
29384;SDS011;16367;48.736;9.218;2022-07-06T10:30:24;5.77;;;5.37;;
29384;SDS011;16367;48.736;9.218;2022-07-06T10:32:28;5.80;;;5.30;;
29384;SDS011;16367;48.736;9.218;2022-07-06T10:34:31;6.93;;;5.73;;
29384;SDS011;16367;48.736;9.218;2022-07-06T10:36:39;6.67;;;6.17;;
29384;SDS011;16367;48.736;9.218;2022-07-06T10:38:45;6.43;;;5.73;;
29384;SDS011;16367;48.736;9.218;2022-07-06T10:40:51;8.53;;;5.80;;
29384;SDS011;16367;48.736;9.218;2022-07-06T10:43:05;5.27;;;4.83;;
29384;SDS011;16367;48.736;9.218;2022-07-06T10:45:11;6.30;;;5.70;;
29384;SDS011;16367;48.736;9.218;2022-07-06T10:47:15;6.90;;;5.80;;
29384;SDS011;16367;48.736;9.218;2022-07-06T10:49:18;6.43;;;5.87;;
29384;SDS011;16367;48.736;9.218;2022-07-06T10:51:42;7.93;;;6.50;;
29384;SDS011;16367;48.736;9.218;2022-07-06T10:53:44;5.83;;;5.43;;
29384;SDS011;16367;48.736;9.218;2022-07-06T10:55:47;6.30;;;5.70;;
29384;SDS011;16367;48.736;9.218;2022-07-06T10:57:53;6.00;;;5.50;;
29384;SDS011;16367;48.736;9.218;2022-07-06T11:00:02;5.60;;;5.20;;
29384;SDS011;16367;48.736;9.218;2022-07-06T11:02:13;8.00;;;5.40;;
29384;SDS011;16367;48.736;9.218;2022-07-06T11:04:17;7.03;;;5.97;;
29384;SDS011;16367;48.736;9.218;2022-07-06T11:06:20;5.53;;;5.03;;
29384;SDS011;16367;48.736;9.218;2022-07-06T11:10:50;6.63;;;6.13;;
29384;SDS011;16367;48.736;9.218;2022-07-06T11:12:58;6.73;;;6.03;;
29384;SDS011;16367;48.736;9.218;2022-07-06T11:15:03;7.27;;;6.67;;
29384;SDS011;16367;48.736;9.218;2022-07-06T11:17:06;6.60;;;6.00;;
29384;SDS011;16367;48.736;9.218;2022-07-06T11:19:12;6.00;;;5.50;;
29384;SDS011;16367;48.736;9.218;2022-07-06T11:21:21;7.13;;;6.17;;
29384;SDS011;16367;48.736;9.218;2022-07-06T11:23:24;7.17;;;6.57;;
29384;SDS011;16367;48.736;9.218;2022-07-06T11:25:27;5.47;;;5.03;;
29384;SDS011;16367;48.736;9.218;2022-07-06T11:27:31;7.13;;;5.50;;
29384;SDS011;16367;48.736;9.218;2022-07-06T11:29:36;5.63;;;5.13;;
29384;SDS011;16367;48.736;9.218;2022-07-06T11:31:42;5.37;;;4.97;;
29384;SDS011;16367;48.736;9.218;2022-07-06T11:33:46;6.57;;;5.00;;
29384;SDS011;16367;48.736;9.218;2022-07-06T11:35:50;6.77;;;5.83;;
29384;SDS011;16367;48.736;9.218;2022-07-06T11:37:53;8.23;;;5.67;;
29384;SDS011;16367;48.736;9.218;2022-07-06T11:39:55;6.07;;;5.53;;
29384;SDS011;16367;48.736;9.218;2022-07-06T11:41:58;5.87;;;5.37;;
29384;SDS011;16367;48.736;9.218;2022-07-06T11:44:03;6.87;;;6.07;;
29384;SDS011;16367;48.736;9.218;2022-07-06T11:46:06;6.87;;;5.60;;
29384;SDS011;16367;48.736;9.218;2022-07-06T11:48:10;8.77;;;5.47;;
29384;SDS011;16367;48.736;9.218;2022-07-06T11:50:19;6.20;;;5.37;;
29384;SDS011;16367;48.736;9.218;2022-07-06T11:52:22;6.80;;;6.30;;
29384;SDS011;16367;48.736;9.218;2022-07-06T11:54:26;7.90;;;5.60;;
29384;SDS011;16367;48.736;9.218;2022-07-06T11:56:29;5.90;;;5.40;;
29384;SDS011;16367;48.736;9.218;2022-07-06T11:58:32;6.70;;;6.10;;
29384;SDS011;16367;48.736;9.218;2022-07-06T12:00:37;7.50;;;6.00;;
29384;SDS011;16367;48.736;9.218;2022-07-06T12:02:57;5.73;;;5.13;;
29384;SDS011;16367;48.736;9.218;2022-07-06T12:05:03;6.97;;;5.67;;
29384;SDS011;16367;48.736;9.218;2022-07-06T12:07:07;5.97;;;5.47;;
29384;SDS011;16367;48.736;9.218;2022-07-06T12:09:13;9.90;;;6.00;;
29384;SDS011;16367;48.736;9.218;2022-07-06T12:11:16;6.43;;;5.93;;
29384;SDS011;16367;48.736;9.218;2022-07-06T12:13:22;6.00;;;5.50;;
29384;SDS011;16367;48.736;9.218;2022-07-06T12:15:26;5.87;;;5.10;;
29384;SDS011;16367;48.736;9.218;2022-07-06T12:17:29;5.80;;;5.27;;
29384;SDS011;16367;48.736;9.218;2022-07-06T12:19:32;7.20;;;6.60;;
29384;SDS011;16367;48.736;9.218;2022-07-06T12:21:37;6.40;;;5.80;;
29384;SDS011;16367;48.736;9.218;2022-07-06T12:23:45;7.20;;;6.17;;
29384;SDS011;16367;48.736;9.218;2022-07-06T12:25:51;7.23;;;6.60;;
29384;SDS011;16367;48.736;9.218;2022-07-06T12:27:56;6.30;;;5.70;;
29384;SDS011;16367;48.736;9.218;2022-07-06T12:30:07;6.47;;;5.70;;